createdAt,value
2023-01-25T00:01:54.526Z,9.70
2023-01-25T00:06:57.164Z,10.50
2023-01-25T00:12:01.163Z,11.20
2023-01-25T00:17:02.893Z,11.80
2023-01-25T00:22:05.312Z,12.60
2023-01-25T00:27:06.998Z,11.20
2023-01-25T00:32:15.098Z,11.30
2023-01-25T00:37:44.219Z,16.20
2023-01-25T00:42:46.258Z,11.80
2023-01-25T00:47:48.011Z,11.60
2023-01-25T00:52:49.771Z,12.00
2023-01-25T00:57:51.703Z,9.20
2023-01-25T01:02:53.756Z,10.50
2023-01-25T01:07:56.201Z,6.80
2023-01-25T01:12:57.929Z,8.00
2023-01-25T01:17:59.558Z,10.30
2023-01-25T01:23:02.305Z,8.40
2023-01-25T01:28:04.080Z,6.30
2023-01-25T01:33:06.319Z,5.40
2023-01-25T01:38:08.090Z,9.00
2023-01-25T01:43:18.235Z,6.50
2023-01-25T01:48:45.130Z,5.00
2023-01-25T01:54:33.004Z,5.80
2023-01-25T01:59:48.812Z,6.80
2023-01-25T02:04:53.369Z,6.50
2023-01-25T02:14:57.102Z,7.00
2023-01-25T02:20:13.413Z,4.90
2023-01-25T02:25:17.561Z,6.40
2023-01-25T02:30:19.328Z,6.70
2023-01-25T02:35:24.010Z,2.40
2023-01-25T02:45:30.154Z,6.00
2023-01-25T02:50:32.091Z,5.80
2023-01-25T02:55:33.842Z,4.70
2023-01-25T03:00:35.696Z,5.90
2023-01-25T03:05:38.607Z,4.70
2023-01-25T03:10:40.640Z,4.90
2023-01-25T03:15:42.697Z,4.90
2023-01-25T03:20:44.847Z,4.70
2023-01-25T03:25:47.051Z,5.60
2023-01-25T03:30:53.813Z,6.10
2023-01-25T03:35:56.424Z,6.60
2023-01-25T03:40:58.820Z,4.90
2023-01-25T03:46:02.300Z,5.20
2023-01-25T03:51:04.926Z,8.80
2023-01-25T03:56:09.582Z,8.90
2023-01-25T04:01:12.056Z,8.50
2023-01-25T04:06:14.204Z,5.00
2023-01-25T04:11:16.419Z,5.20
2023-01-25T04:16:19.945Z,7.90
2023-01-25T04:21:40.633Z,5.40
2023-01-25T04:26:42.817Z,10.80
2023-01-25T04:31:44.876Z,8.20
2023-01-25T04:36:47.336Z,6.20
2023-01-25T04:41:49.531Z,7.90
2023-01-25T04:46:51.915Z,9.00
2023-01-25T04:51:54.116Z,9.10
2023-01-25T04:56:56.271Z,15.60
2023-01-25T05:01:58.327Z,12.80
2023-01-25T05:07:00.459Z,16.50
2023-01-25T05:12:02.509Z,17.80
2023-01-25T05:17:16.822Z,17.00
2023-01-25T05:22:21.148Z,21.50
2023-01-25T05:27:26.283Z,22.70
2023-01-25T05:32:28.063Z,14.80
2023-01-25T05:37:31.013Z,16.60
2023-01-25T05:42:36.891Z,18.90
2023-01-25T05:47:39.146Z,16.90
2023-01-25T05:52:41.550Z,18.50
2023-01-25T05:57:43.529Z,26.70
2023-01-25T06:02:45.476Z,17.40
2023-01-25T06:07:51.506Z,16.90
2023-01-25T06:12:59.385Z,21.70
2023-01-25T06:18:01.545Z,21.10
2023-01-25T06:23:14.289Z,22.00
2023-01-25T06:28:16.152Z,32.10
2023-01-25T06:33:17.979Z,25.20
2023-01-25T06:38:20.084Z,25.20
2023-01-25T06:43:21.891Z,23.50
2023-01-25T06:48:23.703Z,21.50
2023-01-25T06:53:30.282Z,35.60
2023-01-25T06:58:33.026Z,30.90
2023-01-25T07:03:35.114Z,26.80
2023-01-25T07:08:37.234Z,30.20
2023-01-25T07:13:40.583Z,30.20
2023-01-25T07:18:42.568Z,31.70
2023-01-25T07:23:44.905Z,27.10
2023-01-25T07:28:48.095Z,34.40
2023-01-25T07:33:57.566Z,22.60
2023-01-25T07:39:01.880Z,18.70
2023-01-25T07:44:03.913Z,18.60
2023-01-25T07:49:19.629Z,17.70
2023-01-25T07:54:21.282Z,29.10
2023-01-25T07:59:24.438Z,29.80
2023-01-25T08:04:26.364Z,17.70
2023-01-25T08:09:28.508Z,18.60
2023-01-25T08:14:30.304Z,11.30
2023-01-25T08:19:32.066Z,17.50
2023-01-25T08:24:34.026Z,12.70
2023-01-25T08:29:35.988Z,14.40
2023-01-25T08:34:37.743Z,15.30
2023-01-25T08:39:39.490Z,17.70
2023-01-25T08:44:41.256Z,18.70
2023-01-25T08:49:42.953Z,19.50
2023-01-25T08:54:44.819Z,20.50
2023-01-25T08:59:47.826Z,23.30
2023-01-25T09:04:49.623Z,21.30
2023-01-25T09:09:51.392Z,19.10
2023-01-25T09:14:53.241Z,18.80
2023-01-25T09:19:54.950Z,14.30
2023-01-25T09:24:56.629Z,11.30
2023-01-25T09:30:01.774Z,17.70
2023-01-25T09:35:05.713Z,18.90
2023-01-25T09:40:30.816Z,15.90
2023-01-25T09:45:36.503Z,17.00
2023-01-25T09:50:58.606Z,16.70
2023-01-25T09:56:25.583Z,14.70
2023-01-25T10:01:39.318Z,11.70
2023-01-25T10:06:55.145Z,13.60
2023-01-25T10:12:15.436Z,13.70
2023-01-25T10:17:36.982Z,16.40
2023-01-25T10:22:53.074Z,13.70
2023-01-25T10:28:08.877Z,11.10
2023-01-25T10:33:15.183Z,12.90
2023-01-25T10:38:25.387Z,13.20
2023-01-25T10:43:27.142Z,16.70
2023-01-25T10:48:36.710Z,18.10
2023-01-25T10:53:44.235Z,14.00
2023-01-25T10:58:49.192Z,12.20
2023-01-25T11:03:51.385Z,16.70
2023-01-25T11:08:53.209Z,26.40
2023-01-25T11:13:55.402Z,15.90
2023-01-25T11:18:59.187Z,25.80
2023-01-25T11:24:06.805Z,11.80
2023-01-25T11:29:23.357Z,12.20
2023-01-25T11:34:28.045Z,16.70
2023-01-25T11:39:44.841Z,11.30
2023-01-25T11:45:08.751Z,18.40
2023-01-25T11:50:22.554Z,15.30
2023-01-25T11:55:56.315Z,11.80
2023-01-25T12:01:19.291Z,15.30
2023-01-25T12:06:27.083Z,14.70
2023-01-25T12:11:52.895Z,9.20
2023-01-25T12:17:08.786Z,10.60
2023-01-25T12:22:22.511Z,10.10
2023-01-25T12:27:36.286Z,9.50
2023-01-25T12:32:45.523Z,10.60
2023-01-25T12:37:49.418Z,11.30
2023-01-25T12:42:58.962Z,15.50
2023-01-25T12:48:05.936Z,8.50
2023-01-25T12:53:34.345Z,11.30
2023-01-25T12:58:52.476Z,9.10
2023-01-25T13:04:18.252Z,11.10
2023-01-25T13:09:44.469Z,10.30
2023-01-25T13:14:46.158Z,11.10
2023-01-25T13:19:48.497Z,14.80
2023-01-25T13:25:02.468Z,9.80
2023-01-25T13:30:16.269Z,12.90
2023-01-25T13:35:30.071Z,10.20
2023-01-25T13:40:33.329Z,15.50
2023-01-25T13:45:38.606Z,11.00
2023-01-25T13:50:47.911Z,14.80
2023-01-25T13:55:54.739Z,10.90
2023-01-25T14:01:08.405Z,12.20
2023-01-25T14:06:20.591Z,12.60
2023-01-25T14:11:29.030Z,19.00
2023-01-25T14:16:32.394Z,15.30
2023-01-25T14:21:34.376Z,10.90
2023-01-25T14:26:39.246Z,12.00
2023-01-25T14:31:41.042Z,12.30
2023-01-25T14:36:43.094Z,15.60
2023-01-25T14:42:00.049Z,14.20
2023-01-25T14:47:31.044Z,15.10
2023-01-25T14:52:32.835Z,20.80
2023-01-25T14:57:37.670Z,13.90
2023-01-25T15:02:45.905Z,14.80
2023-01-25T15:07:53.597Z,20.00
2023-01-25T15:13:15.573Z,19.80
2023-01-25T15:18:40.705Z,21.50
2023-01-25T15:23:44.540Z,18.80
2023-01-25T15:28:46.697Z,19.20
2023-01-25T15:33:49.021Z,19.40
2023-01-25T15:38:50.772Z,20.50
2023-01-25T15:43:53.137Z,20.20
2023-01-25T15:48:56.445Z,25.80
2023-01-25T15:53:59.098Z,22.50
2023-01-25T15:59:05.401Z,25.10
2023-01-25T16:04:09.883Z,29.20
2023-01-25T16:09:16.309Z,22.70
2023-01-25T16:14:18.989Z,23.00
2023-01-25T16:19:23.280Z,18.90
2023-01-25T16:24:25.043Z,29.40
2023-01-25T16:29:27.488Z,31.10
2023-01-25T16:34:29.185Z,40.10
2023-01-25T16:39:33.861Z,32.70
2023-01-25T16:44:35.578Z,26.50
2023-01-25T16:49:37.502Z,39.30
2023-01-25T16:54:39.325Z,22.50
2023-01-25T16:59:41.187Z,22.30
2023-01-25T17:04:42.894Z,18.10
2023-01-25T17:09:44.705Z,18.00
2023-01-25T17:14:46.413Z,12.90
2023-01-25T17:19:49.877Z,15.40
2023-01-25T17:24:51.574Z,16.00
2023-01-25T17:29:53.285Z,16.20
2023-01-25T17:34:59.074Z,14.40
2023-01-25T17:40:01.095Z,13.70
2023-01-25T17:45:02.959Z,14.40
2023-01-25T17:50:05.219Z,11.00
2023-01-25T17:55:07.511Z,12.10
2023-01-25T18:00:12.300Z,20.40
2023-01-25T18:05:17.395Z,22.20
2023-01-25T18:10:19.272Z,21.00
2023-01-25T18:15:22.429Z,23.60
2023-01-25T18:20:24.226Z,27.80
2023-01-25T18:25:34.635Z,29.20
2023-01-25T18:30:41.244Z,25.40
2023-01-25T18:35:43.970Z,20.00
2023-01-25T18:40:45.744Z,10.00
2023-01-25T18:45:55.846Z,24.20
2023-01-25T18:51:06.527Z,19.70
2023-01-25T18:56:20.442Z,18.70
2023-01-25T19:01:22.925Z,15.10
2023-01-25T19:06:24.770Z,8.10
2023-01-25T19:11:26.738Z,11.90
2023-01-25T19:16:28.753Z,9.80
2023-01-25T19:21:30.520Z,7.70
2023-01-25T19:26:32.236Z,9.30
2023-01-25T19:31:36.741Z,8.80
2023-01-25T19:36:43.679Z,14.40
2023-01-25T19:41:45.420Z,9.30
2023-01-25T19:46:47.741Z,12.50
2023-01-25T19:51:53.152Z,5.50
2023-01-25T19:56:56.102Z,7.40
2023-01-25T20:01:57.862Z,11.30
2023-01-25T20:06:59.552Z,9.10
2023-01-25T20:12:03.015Z,8.40
2023-01-25T20:17:06.466Z,5.30
2023-01-25T20:22:08.622Z,7.70
2023-01-25T20:27:10.331Z,7.30
2023-01-25T20:32:26.684Z,5.20
2023-01-25T20:37:33.447Z,12.70
2023-01-25T20:42:35.136Z,8.80
2023-01-25T20:47:36.870Z,8.60
2023-01-25T20:52:38.542Z,8.00
2023-01-25T20:57:40.737Z,6.80
2023-01-25T21:02:42.398Z,5.60
2023-01-25T21:07:44.110Z,5.90
2023-01-25T21:12:45.809Z,10.20
2023-01-25T21:17:53.722Z,7.90
2023-01-25T21:22:55.397Z,4.40
2023-01-25T21:27:57.080Z,6.10
2023-01-25T21:32:58.809Z,6.60
2023-01-25T21:38:00.579Z,7.60
2023-01-25T21:43:02.267Z,5.80
2023-01-25T21:48:04.104Z,7.00
2023-01-25T21:53:05.987Z,6.40
2023-01-25T21:58:07.785Z,6.60
2023-01-25T22:03:09.472Z,7.50
2023-01-25T22:08:11.243Z,6.50
2023-01-25T22:13:20.176Z,6.80
2023-01-25T22:18:21.895Z,8.20
2023-01-25T22:23:23.595Z,9.60
2023-01-25T22:28:26.999Z,8.80
2023-01-25T22:33:28.709Z,9.00
2023-01-25T22:38:30.382Z,11.90
2023-01-25T22:43:35.694Z,12.50
2023-01-25T22:48:37.531Z,11.00
2023-01-25T22:53:39.232Z,8.50
2023-01-25T22:58:42.675Z,6.20
2023-01-25T23:03:44.856Z,6.60
2023-01-25T23:08:47.971Z,11.00
2023-01-25T23:14:08.984Z,7.60
2023-01-25T23:19:10.658Z,14.20
2023-01-25T23:24:13.040Z,11.10
2023-01-25T23:29:14.927Z,13.10
2023-01-25T23:34:16.633Z,12.90
2023-01-25T23:39:18.461Z,11.60
2023-01-25T23:44:20.146Z,13.70
2023-01-25T23:49:21.864Z,11.10
2023-01-25T23:54:23.770Z,14.10
2023-01-25T23:59:25.484Z,18.40
